Time;durP1;ratioP1;P1;durP2;ratioP2;P2;SDS_P1;SDS_P2;PMS_P1;PMS_P2;Temp;Humidity;BMP_temperature;BMP_pressure;BME280_temperature;BME280_humidity;BME280_pressure;Samples;Min_cycle;Max_cycle;Signal;HPM_P1;HPM_P2
2023/05/29 04:04:35;;;;;;;2.22;2.13;;;11.80;99.90;;;;;;5783184;23;20232;-65
2023/05/29 04:07:00;;;;;;;2.33;2.17;;;11.90;99.90;;;;;;4938933;29;20259;-66
2023/05/29 04:09:26;;;;;;;2.77;2.33;;;11.90;99.90;;;;;;4939338;29;20260;-65
2023/05/29 04:11:51;;;;;;;2.73;2.53;;;11.90;99.90;;;;;;4939268;29;20179;-65
2023/05/29 04:14:17;;;;;;;3.27;3.07;;;12.00;99.90;;;;;;4938638;29;20211;-65
2023/05/29 04:16:43;;;;;;;2.17;2.07;;;12.00;99.90;;;;;;4939004;29;20231;-65
2023/05/29 04:19:09;;;;;;;2.40;2.20;;;12.10;99.90;;;;;;4939129;29;20422;-65
2023/05/29 04:21:34;;;;;;;3.63;3.07;;;12.20;99.90;;;;;;4939042;29;20171;-65
2023/05/29 04:24:01;;;;;;;2.40;2.30;;;12.40;99.90;;;;;;4938587;29;20208;-65
2023/05/29 04:26:27;;;;;;;2.40;1.97;;;12.60;99.90;;;;;;4938901;29;20830;-65
2023/05/29 04:28:57;;;;;;;2.57;2.37;;;12.80;99.90;;;;;;4938949;29;20211;-65
2023/05/29 04:31:25;;;;;;;2.63;2.40;;;12.90;99.90;;;;;;4938599;29;20190;-65
2023/05/29 04:33:54;;;;;;;1.93;1.83;;;13.20;99.90;;;;;;4938011;29;20467;-65
2023/05/29 04:36:26;;;;;;;4.80;2.20;;;13.70;99.90;;;;;;4938385;29;20383;-65
2023/05/29 04:38:55;;;;;;;3.33;2.70;;;14.10;99.90;;;;;;4938932;29;20414;-65
2023/05/29 04:41:29;;;;;;;2.13;1.80;;;14.40;99.90;;;;;;4938692;29;20484;-65
2023/05/29 04:43:56;;;;;;;3.37;2.10;;;14.60;99.90;;;;;;4937407;29;20413;-65
2023/05/29 04:46:22;;;;;;;2.03;1.93;;;14.70;99.90;;;;;;4938807;29;20769;-65
2023/05/29 04:48:48;;;;;;;2.67;2.47;;;14.80;99.90;;;;;;4938503;29;20483;-65
2023/05/29 04:51:13;;;;;;;2.03;1.93;;;14.90;99.90;;;;;;4937121;29;20508;-64
2023/05/29 04:53:40;;;;;;;1.97;1.87;;;15.10;99.90;;;;;;4938066;29;20205;-65
2023/05/29 04:56:07;;;;;;;1.80;1.70;;;15.10;99.90;;;;;;4938247;29;20707;-65
2023/05/29 04:58:32;;;;;;;2.13;1.97;;;15.10;99.90;;;;;;4938417;29;20421;-67
2023/05/29 05:00:59;;;;;;;2.60;2.50;;;15.10;99.90;;;;;;4938781;29;20381;-66
2023/05/29 05:03:25;;;;;;;2.80;2.60;;;15.10;99.90;;;;;;4938639;29;20213;-65
2023/05/29 05:05:51;;;;;;;2.33;2.20;;;15.20;99.90;;;;;;4938890;29;20452;-66
2023/05/29 05:08:17;;;;;;;2.70;2.50;;;15.30;99.90;;;;;;4940042;29;20417;-64
2023/05/29 05:10:43;;;;;;;3.37;2.63;;;15.30;99.90;;;;;;4939272;29;20488;-65
2023/05/29 05:13:08;;;;;;;2.90;2.70;;;15.40;99.90;;;;;;4938899;29;20960;-65
2023/05/29 05:15:34;;;;;;;3.27;3.00;;;15.40;99.90;;;;;;4938717;29;20240;-64
2023/05/29 05:18:00;;;;;;;2.57;2.37;;;15.50;99.90;;;;;;4938078;29;20177;-65
2023/05/29 05:20:25;;;;;;;2.60;2.40;;;15.50;99.90;;;;;;4937967;29;20533;-65
2023/05/29 05:22:51;;;;;;;4.87;4.00;;;15.60;99.90;;;;;;4937784;29;20225;-65
2023/05/29 05:25:17;;;;;;;2.60;2.40;;;15.50;99.90;;;;;;4937366;29;20209;-65
2023/05/29 05:27:43;;;;;;;3.90;2.70;;;15.60;99.90;;;;;;4937829;29;20418;-65
2023/05/29 05:30:09;;;;;;;3.67;3.37;;;15.60;99.90;;;;;;4937880;29;20537;-65
2023/05/29 05:32:34;;;;;;;6.13;2.47;;;15.60;99.90;;;;;;4938239;29;20269;-65
2023/05/29 05:35:00;;;;;;;2.40;2.20;;;15.60;99.90;;;;;;4937203;29;20600;-65
2023/05/29 05:37:26;;;;;;;3.73;3.07;;;15.70;99.90;;;;;;4937667;29;20178;-65
2023/05/29 05:39:53;;;;;;;4.13;3.20;;;15.80;99.90;;;;;;4937491;29;20661;-67
2023/05/29 05:42:19;;;;;;;3.00;2.77;;;15.90;99.90;;;;;;4936114;29;20642;-65
2023/05/29 05:44:45;;;;;;;4.23;2.30;;;15.90;99.90;;;;;;4937287;29;20471;-67
2023/05/29 05:47:10;;;;;;;2.60;2.40;;;16.00;99.90;;;;;;4936076;29;20457;-65
2023/05/29 05:49:36;;;;;;;3.00;2.70;;;16.10;99.90;;;;;;4937532;29;20194;-65
2023/05/29 05:52:02;;;;;;;2.33;2.10;;;16.30;99.90;;;;;;4937391;29;20197;-65
2023/05/29 05:54:27;;;;;;;2.43;2.07;;;16.50;99.90;;;;;;4936796;29;20207;-66
2023/05/29 05:56:53;;;;;;;3.13;2.90;;;16.70;99.90;;;;;;4937091;29;20188;-65
2023/05/29 05:59:18;;;;;;;5.00;3.53;;;17.00;99.90;;;;;;4937193;29;20178;-65
2023/05/29 06:01:44;;;;;;;3.03;2.83;;;17.30;99.50;;;;;;4937200;29;20178;-66
2023/05/29 06:04:09;;;;;;;3.57;3.00;;;17.40;99.30;;;;;;4937019;29;20208;-66
2023/05/29 06:06:35;;;;;;;11.37;2.80;;;17.40;99.20;;;;;;4936894;29;20193;-65
2023/05/29 06:09:01;;;;;;;2.53;2.33;;;17.40;98.80;;;;;;4937152;29;20185;-64
2023/05/29 06:11:27;;;;;;;5.33;2.13;;;17.40;98.40;;;;;;4937214;29;20188;-65
2023/05/29 06:13:53;;;;;;;3.93;2.53;;;17.40;98.90;;;;;;4936485;29;20210;-65
2023/05/29 06:16:19;;;;;;;2.57;2.37;;;17.40;98.60;;;;;;4936906;29;20180;-65
2023/05/29 06:18:44;;;;;;;2.97;2.67;;;17.50;98.80;;;;;;4936953;29;20410;-65
2023/05/29 06:21:12;;;;;;;2.70;2.50;;;17.70;99.00;;;;;;4937028;29;20406;-66
2023/05/29 06:23:38;;;;;;;4.60;2.43;;;17.80;98.70;;;;;;4936476;29;20182;-65
2023/05/29 06:26:04;;;;;;;2.60;2.33;;;17.90;98.50;;;;;;4936477;29;20536;-65
2023/05/29 06:28:30;;;;;;;3.00;2.47;;;18.00;98.10;;;;;;4936579;29;20177;-65
2023/05/29 06:30:56;;;;;;;2.87;2.50;;;18.10;97.40;;;;;;4936792;29;20388;-65
2023/05/29 06:33:21;;;;;;;2.83;2.63;;;18.30;97.40;;;;;;4936325;29;20209;-65
2023/05/29 06:35:48;;;;;;;3.00;2.17;;;18.40;98.40;;;;;;4936765;29;20796;-67
2023/05/29 06:38:14;;;;;;;2.67;2.47;;;18.50;99.10;;;;;;4936556;29;20225;-65
2023/05/29 06:40:40;;;;;;;2.17;2.03;;;18.60;98.50;;;;;;4936507;29;20417;-65
2023/05/29 06:43:05;;;;;;;2.83;1.67;;;18.60;97.70;;;;;;4936200;29;20464;-66
2023/05/29 06:45:31;;;;;;;2.07;1.97;;;18.60;97.60;;;;;;4936250;29;20193;-65
2023/05/29 06:47:56;;;;;;;2.13;1.93;;;18.70;97.20;;;;;;4936386;29;20216;-65
2023/05/29 06:50:22;;;;;;;2.40;2.20;;;18.70;97.00;;;;;;4936357;29;20169;-66
2023/05/29 06:52:48;;;;;;;2.90;2.20;;;18.70;96.00;;;;;;4936343;29;20177;-65
2023/05/29 06:55:13;;;;;;;2.97;2.57;;;18.80;96.00;;;;;;4935795;29;20520;-66
2023/05/29 06:57:39;;;;;;;2.50;2.30;;;18.90;96.30;;;;;;4936299;29;20212;-65
2023/05/29 07:00:06;;;;;;;3.00;2.50;;;18.90;95.90;;;;;;4934963;29;20185;-65
2023/05/29 07:02:32;;;;;;;4.13;2.30;;;18.90;95.60;;;;;;4936234;29;20385;-64
2023/05/29 07:04:58;;;;;;;4.87;2.17;;;18.90;95.70;;;;;;4935646;29;20444;-65
2023/05/29 07:07:24;;;;;;;2.30;1.67;;;19.00;95.90;;;;;;4935408;29;20279;-65
2023/05/29 07:09:49;;;;;;;2.63;2.43;;;19.20;95.70;;;;;;4936203;29;20189;-65
2023/05/29 07:12:15;;;;;;;1.87;1.77;;;19.20;96.90;;;;;;4935909;29;20631;-64
2023/05/29 07:14:40;;;;;;;1.90;1.70;;;19.30;97.10;;;;;;4935574;29;20213;-64
2023/05/29 07:17:06;;;;;;;3.03;2.13;;;19.50;95.60;;;;;;4936098;29;20632;-65
2023/05/29 07:19:34;;;;;;;1.80;1.70;;;19.60;95.90;;;;;;4935926;29;20294;-65
2023/05/29 07:22:00;;;;;;;3.40;2.53;;;19.80;94.90;;;;;;4935949;29;20178;-64
2023/05/29 07:24:26;;;;;;;1.63;1.53;;;20.00;95.00;;;;;;4935759;29;20437;-65
2023/05/29 07:26:52;;;;;;;2.40;2.20;;;20.30;93.80;;;;;;4935909;29;20171;-64
2023/05/29 07:29:20;;;;;;;2.63;2.20;;;20.90;92.90;;;;;;4935948;29;20425;-64
2023/05/29 07:31:46;;;;;;;2.10;1.90;;;21.50;92.20;;;;;;4935880;29;20220;-65
2023/05/29 07:34:12;;;;;;;2.90;2.70;;;22.30;91.70;;;;;;4935459;29;20468;-65
2023/05/29 07:37:06;;;;;;;3.60;2.43;;;23.30;91.40;;;;;;4934705;29;20272;-65
2023/05/29 07:39:33;;;;;;;2.60;2.40;;;24.70;87.00;;;;;;4935787;29;20182;-65
2023/05/29 07:42:01;;;;;;;3.80;2.27;;;25.70;85.20;;;;;;4936004;29;20413;-66
2023/05/29 07:44:26;;;;;;;3.30;3.00;;;26.70;83.50;;;;;;4935508;29;20485;-67
2023/05/29 07:46:52;;;;;;;2.93;2.70;;;27.70;78.40;;;;;;4935885;29;20822;-66
2023/05/29 07:49:18;;;;;;;2.57;2.40;;;28.30;73.40;;;;;;4935793;29;20702;-66
2023/05/29 07:51:44;;;;;;;2.77;2.33;;;28.90;73.10;;;;;;4935477;29;20272;-65
2023/05/29 07:54:10;;;;;;;2.27;2.07;;;29.60;71.60;;;;;;4935344;29;20532;-66
2023/05/29 07:56:37;;;;;;;3.20;2.90;;;30.40;70.30;;;;;;4935833;29;20208;-65
2023/05/29 07:59:03;;;;;;;2.70;2.50;;;31.30;68.30;;;;;;4935581;29;20269;-66
2023/05/29 08:01:29;;;;;;;2.73;2.53;;;31.90;63.30;;;;;;4935924;29;20508;-66
2023/05/29 08:03:54;;;;;;;4.40;2.80;;;32.10;62.30;;;;;;4931756;29;20177;-66
2023/05/29 08:06:20;;;;;;;3.23;2.93;;;32.10;61.80;;;;;;4935180;29;20448;-66
2023/05/29 08:08:46;;;;;;;2.80;2.60;;;32.00;62.00;;;;;;4935671;29;20647;-66
2023/05/29 08:11:11;;;;;;;2.90;2.70;;;32.10;61.10;;;;;;4936047;29;20178;-66
2023/05/29 08:13:37;;;;;;;3.60;3.30;;;32.20;60.60;;;;;;4933421;29;20738;-65
2023/05/29 08:16:03;;;;;;;2.20;2.10;;;32.50;61.30;;;;;;4934818;29;20205;-66
2023/05/29 08:18:31;;;;;;;3.00;2.80;;;32.80;60.00;;;;;;4919214;29;20178;-66
2023/05/29 08:20:57;;;;;;;3.17;2.83;;;32.80;59.70;;;;;;4920119;29;20427;-66
2023/05/29 08:23:22;;;;;;;2.60;2.40;;;33.40;58.30;;;;;;4919926;29;20777;-66
2023/05/29 08:25:48;;;;;;;2.47;2.30;;;33.80;56.40;;;;;;4920230;29;20454;-66
2023/05/29 08:28:17;;;;;;;2.80;2.60;;;34.00;56.50;;;;;;4919992;29;20182;-64
2023/05/29 08:30:42;;;;;;;2.30;2.07;;;33.90;56.00;;;;;;4919828;29;20192;-66
2023/05/29 08:33:08;;;;;;;2.63;2.43;;;34.20;56.50;;;;;;4919202;29;20490;-66
2023/05/29 08:35:34;;;;;;;2.90;2.70;;;34.60;57.10;;;;;;4920285;29;20198;-65
2023/05/29 08:38:00;;;;;;;2.40;2.30;;;34.70;55.10;;;;;;4938946;29;20197;-66
2023/05/29 08:40:25;;;;;;;2.50;2.30;;;34.80;56.10;;;;;;4938529;29;20222;-66
2023/05/29 08:43:08;;;;;;;2.90;2.60;;;35.10;54.80;;;;;;4938750;29;20189;-66
2023/05/29 08:45:36;;;;;;;2.57;2.37;;;35.00;54.10;;;;;;4938544;29;20292;-66
2023/05/29 08:48:02;;;;;;;3.13;2.93;;;35.00;54.10;;;;;;4938436;29;20441;-66
2023/05/29 08:50:28;;;;;;;2.67;2.47;;;35.00;53.60;;;;;;4927238;29;20430;-66
2023/05/29 08:52:55;;;;;;;2.47;2.27;;;34.80;55.20;;;;;;4919571;29;20194;-66
2023/05/29 08:55:21;;;;;;;3.00;2.80;;;34.70;54.90;;;;;;4918837;29;20207;-66
2023/05/29 08:57:47;;;;;;;3.47;3.27;;;35.10;54.30;;;;;;4919652;29;20425;-63
2023/05/29 09:00:16;;;;;;;2.83;2.63;;;35.10;54.20;;;;;;4933509;29;20657;-67
2023/05/29 09:02:45;;;;;;;3.00;2.80;;;35.30;53.40;;;;;;4937907;29;20435;-66
2023/05/29 09:05:12;;;;;;;3.30;3.10;;;35.30;53.20;;;;;;4937908;29;20568;-66
2023/05/29 09:07:39;;;;;;;3.50;3.20;;;34.90;53.20;;;;;;4938097;29;20493;-66
2023/05/29 09:10:06;;;;;;;2.60;2.40;;;34.70;53.40;;;;;;4919536;29;20486;-65
2023/05/29 09:12:33;;;;;;;2.63;2.53;;;34.80;54.00;;;;;;4919017;29;20518;-66
2023/05/29 09:14:59;;;;;;;2.67;2.47;;;34.90;54.20;;;;;;4918455;29;20500;-64
2023/05/29 09:17:30;;;;;;;3.23;3.03;;;35.00;53.60;;;;;;4919040;29;20422;-65
2023/05/29 09:19:55;;;;;;;2.83;2.63;;;34.60;53.40;;;;;;4918844;29;20241;-66
2023/05/29 09:22:21;;;;;;;2.40;2.30;;;34.70;54.60;;;;;;4925969;29;20417;-66
2023/05/29 09:24:49;;;;;;;3.20;3.00;;;34.90;53.90;;;;;;4937199;29;20291;-66
2023/05/29 09:27:15;;;;;;;3.00;2.80;;;35.50;54.80;;;;;;4937641;29;20237;-65
2023/05/29 09:29:42;;;;;;;3.77;2.60;;;35.70;54.30;;;;;;4937413;29;20406;-65
2023/05/29 09:32:08;;;;;;;2.60;2.50;;;35.70;53.50;;;;;;4937777;29;20172;-66
2023/05/29 09:34:35;;;;;;;3.10;2.80;;;35.70;54.30;;;;;;4937309;29;20433;-66
2023/05/29 09:37:08;;;;;;;3.23;3.03;;;35.70;52.30;;;;;;4930735;29;20469;-66
2023/05/29 09:39:41;;;;;;;2.70;2.60;;;35.80;52.10;;;;;;4918713;29;20429;-66
2023/05/29 09:42:06;;;;;;;3.10;2.90;;;35.60;49.70;;;;;;4918591;29;20502;-66
2023/05/29 09:44:32;;;;;;;2.60;2.50;;;35.90;49.60;;;;;;4917752;29;20530;-64
2023/05/29 09:46:59;;;;;;;3.07;2.87;;;35.90;49.30;;;;;;4918517;29;20269;-66
2023/05/29 09:49:27;;;;;;;2.30;2.20;;;36.10;49.90;;;;;;4918641;29;20200;-65
2023/05/29 09:51:56;;;;;;;3.13;2.60;;;36.30;48.70;;;;;;4934587;29;20772;-67
2023/05/29 09:54:21;;;;;;;2.43;2.30;;;36.50;48.50;;;;;;4936857;29;20433;-66
2023/05/29 09:56:47;;;;;;;2.70;2.53;;;36.50;46.70;;;;;;4937312;29;20548;-66
2023/05/29 09:59:14;;;;;;;2.50;2.30;;;36.50;46.90;;;;;;4937072;29;20174;-66
2023/05/29 10:01:42;;;;;;;2.40;2.20;;;36.00;45.80;;;;;;4937186;29;20536;-65
2023/05/29 10:04:11;;;;;;;2.43;2.33;;;36.20;46.40;;;;;;4924889;29;20556;-66
2023/05/29 10:06:41;;;;;;;4.40;2.83;;;36.20;45.90;;;;;;4917836;29;20469;-66
2023/05/29 10:09:10;;;;;;;2.27;2.17;;;35.90;46.30;;;;;;4918169;29;20501;-66
2023/05/29 10:11:38;;;;;;;2.30;2.20;;;35.10;46.70;;;;;;4918093;29;20501;-67
2023/05/29 10:14:05;;;;;;;2.50;2.30;;;34.60;47.60;;;;;;4917524;29;20485;-67
2023/05/29 10:16:35;;;;;;;2.13;2.03;;;34.10;48.00;;;;;;4918956;29;20414;-65
2023/05/29 10:19:07;;;;;;;2.77;2.47;;;33.80;47.30;;;;;;4936840;29;20428;-66
2023/05/29 10:21:36;;;;;;;2.70;2.20;;;33.30;47.30;;;;;;4936796;29;20417;-66
2023/05/29 10:24:06;;;;;;;2.90;2.57;;;32.70;48.30;;;;;;4936140;29;21039;-66
2023/05/29 10:26:36;;;;;;;2.03;1.93;;;32.20;49.30;;;;;;4936506;29;20441;-66
2023/05/29 10:29:05;;;;;;;2.90;2.70;;;31.80;48.30;;;;;;4936858;29;20414;-65
2023/05/29 10:31:39;;;;;;;2.17;2.07;;;31.70;49.30;;;;;;4935962;29;20460;-66
2023/05/29 10:34:23;;;;;;;4.53;2.30;;;31.50;49.80;;;;;;4936298;29;20455;-66
2023/05/29 10:37:02;;;;;;;2.30;2.10;;;31.70;49.40;;;;;;4936509;29;20467;-66
2023/05/29 10:39:28;;;;;;;2.63;2.43;;;31.40;49.50;;;;;;4936385;29;20427;-66
2023/05/29 10:41:58;;;;;;;2.70;2.13;;;31.30;50.30;;;;;;4935646;29;20396;-65
2023/05/29 10:44:32;;;;;;;2.77;2.57;;;31.20;50.10;;;;;;4935982;29;20771;-66
2023/05/29 10:47:04;;;;;;;2.23;2.13;;;31.10;50.10;;;;;;4918404;29;20400;-67
2023/05/29 10:49:31;;;;;;;2.50;2.20;;;31.20;50.40;;;;;;4917389;29;20547;-65
2023/05/29 10:51:59;;;;;;;2.93;2.73;;;31.20;50.60;;;;;;4917243;29;20474;-67
2023/05/29 10:54:26;;;;;;;2.00;1.73;;;31.10;50.90;;;;;;4916856;29;20790;-66
2023/05/29 10:56:57;;;;;;;2.53;1.70;;;31.00;50.60;;;;;;4917083;29;20426;-66
2023/05/29 10:59:27;;;;;;;4.17;2.23;;;30.90;51.50;;;;;;4917195;29;20444;-66
2023/05/29 11:01:53;;;;;;;2.33;2.13;;;31.00;51.40;;;;;;4917403;29;20793;-66
2023/05/29 11:04:22;;;;;;;2.50;2.30;;;31.00;50.60;;;;;;4922783;29;20461;-65
2023/05/29 11:06:48;;;;;;;2.23;2.03;;;30.70;50.10;;;;;;4935897;29;20400;-65
2023/05/29 11:09:49;;;;;;;2.93;2.10;;;30.40;49.80;;;;;;4936180;29;20409;-66
2023/05/29 11:12:54;;;;;;;2.20;2.00;;;29.90;51.00;;;;;;4905813;29;20803;-65
2023/05/29 11:15:14;;;;;;;1.90;1.80;;;29.20;51.30;;;;;;4931841;29;20779;-65
2023/05/29 11:17:40;;;;;;;2.57;2.10;;;28.50;52.30;;;;;;4932049;29;20908;-66
2023/05/29 11:20:07;;;;;;;1.83;1.73;;;27.90;52.70;;;;;;4915927;29;20382;-65
2023/05/29 11:22:48;;;;;;;2.27;2.07;;;27.40;53.30;;;;;;4917039;29;20175;-66
2023/05/29 11:25:15;;;;;;;3.50;2.13;;;27.00;54.00;;;;;;4916360;29;20468;-66
2023/05/29 11:27:44;;;;;;;1.83;1.73;;;26.70;53.50;;;;;;4917322;29;20406;-65
2023/05/29 11:30:10;;;;;;;1.70;1.60;;;26.40;53.40;;;;;;4917101;29;20391;-65
2023/05/29 11:32:36;;;;;;;2.53;2.00;;;26.10;53.10;;;;;;4917350;29;20450;-65
2023/05/29 11:35:08;;;;;;;1.47;1.37;;;26.00;53.50;;;;;;4916709;29;20438;-65
2023/05/29 11:37:38;;;;;;;2.07;1.87;;;25.80;53.50;;;;;;4917131;29;20771;-66
2023/05/29 11:40:09;;;;;;;1.93;1.43;;;25.80;54.10;;;;;;4917148;29;20413;-69
2023/05/29 11:42:35;;;;;;;1.50;1.40;;;25.90;55.00;;;;;;4916969;29;20442;-65
2023/05/29 11:45:14;;;;;;;1.80;1.70;;;25.90;54.50;;;;;;4916553;29;20476;-65
2023/05/29 11:47:57;;;;;;;1.47;1.47;;;25.80;54.10;;;;;;4932576;29;20429;-65
2023/05/29 11:50:28;;;;;;;1.60;1.50;;;25.70;53.70;;;;;;4935903;29;20391;-65
2023/05/29 11:52:54;;;;;;;1.63;1.43;;;25.60;53.90;;;;;;4919747;29;20732;-65
2023/05/29 11:55:20;;;;;;;1.70;1.60;;;25.50;54.10;;;;;;4920288;29;20427;-65
2023/05/29 11:57:47;;;;;;;1.10;1.10;;;25.50;53.60;;;;;;4919165;29;20676;-66
2023/05/29 12:00:18;;;;;;;1.50;1.40;;;25.50;52.80;;;;;;4920484;29;20422;-66
2023/05/29 12:02:46;;;;;;;1.87;1.23;;;25.30;52.70;;;;;;4920493;29;20573;-65
2023/05/29 12:05:14;;;;;;;1.63;1.53;;;25.30;52.90;;;;;;4919883;29;20451;-65
2023/05/29 12:07:53;;;;;;;1.70;1.60;;;25.30;53.20;;;;;;4922010;29;20443;-66
2023/05/29 12:10:21;;;;;;;1.73;1.63;;;25.30;54.10;;;;;;4938035;29;20877;-66
2023/05/29 12:12:54;;;;;;;2.10;1.50;;;25.30;53.00;;;;;;4939235;29;20764;-65
2023/05/29 12:15:21;;;;;;;1.70;1.60;;;25.20;54.40;;;;;;4938744;29;20441;-64
2023/05/29 12:17:51;;;;;;;3.43;1.50;;;25.20;53.70;;;;;;4939198;29;20433;-65
2023/05/29 12:20:18;;;;;;;1.67;1.57;;;25.30;51.70;;;;;;4939227;29;20449;-66
2023/05/29 12:22:45;;;;;;;2.77;1.73;;;25.30;50.30;;;;;;4934455;29;20453;-65
2023/05/29 12:25:21;;;;;;;2.10;1.90;;;25.20;50.00;;;;;;4918312;29;20461;-66
2023/05/29 12:27:48;;;;;;;1.70;1.60;;;25.10;50.60;;;;;;4920100;29;20391;-66
2023/05/29 12:30:17;;;;;;;1.67;1.57;;;25.10;50.10;;;;;;4919802;29;20899;-65
2023/05/29 12:32:45;;;;;;;1.67;1.57;;;25.10;49.70;;;;;;4919898;29;20406;-65
2023/05/29 12:35:14;;;;;;;1.60;1.50;;;25.10;50.20;;;;;;4919315;29;20568;-66
2023/05/29 12:37:54;;;;;;;1.40;1.30;;;25.20;51.10;;;;;;4925146;29;20931;-66
2023/05/29 12:40:22;;;;;;;1.63;1.53;;;25.30;50.70;;;;;;4938780;29;20824;-65
2023/05/29 12:42:53;;;;;;;1.13;1.07;;;25.40;50.40;;;;;;4938773;29;20421;-67
2023/05/29 12:45:19;;;;;;;2.00;1.83;;;25.40;50.30;;;;;;4938080;29;20464;-66
2023/05/29 12:47:46;;;;;;;4.67;1.63;;;25.30;51.30;;;;;;4938679;29;20551;-65
2023/05/29 12:50:25;;;;;;;1.90;1.57;;;25.30;51.00;;;;;;4938602;29;20449;-65
2023/05/29 12:53:05;;;;;;;1.60;1.50;;;25.30;51.80;;;;;;4926120;29;20393;-66
2023/05/29 12:55:33;;;;;;;1.60;1.50;;;25.40;49.70;;;;;;4919235;29;20868;-68
2023/05/29 12:57:59;;;;;;;3.33;1.50;;;25.40;50.10;;;;;;4919392;29;20425;-64
2023/05/29 13:00:26;;;;;;;1.73;1.63;;;25.30;50.10;;;;;;4919328;29;20394;-65
2023/05/29 13:02:51;;;;;;;1.63;1.53;;;25.30;50.50;;;;;;4919299;29;20400;-66
2023/05/29 13:05:18;;;;;;;2.03;1.90;;;25.30;50.50;;;;;;4917772;29;20436;-68
2023/05/29 13:07:46;;;;;;;2.80;1.77;;;25.30;50.30;;;;;;4932221;29;20193;-65
2023/05/29 13:10:11;;;;;;;2.30;2.10;;;25.30;49.70;;;;;;4938240;29;20413;-65
2023/05/29 13:12:37;;;;;;;1.00;1.00;;;25.30;50.60;;;;;;4938253;29;20399;-66
2023/05/29 13:15:03;;;;;;;1.50;1.37;;;25.40;49.90;;;;;;4937634;29;20209;-67
2023/05/29 13:17:29;;;;;;;1.40;1.30;;;25.40;49.70;;;;;;4938039;29;20181;-65
2023/05/29 13:19:54;;;;;;;1.87;1.77;;;25.50;50.80;;;;;;4938020;29;20421;-65
2023/05/29 13:22:20;;;;;;;1.63;1.53;;;25.50;50.30;;;;;;4937192;29;20181;-65
2023/05/29 13:24:46;;;;;;;2.30;2.10;;;25.50;51.80;;;;;;4937318;29;20205;-67
2023/05/29 13:27:15;;;;;;;2.93;1.70;;;25.50;52.20;;;;;;4936634;29;20186;-64
2023/05/29 13:29:42;;;;;;;1.70;1.60;;;25.50;51.10;;;;;;4938000;29;20265;-68
2023/05/29 13:32:08;;;;;;;1.57;1.57;;;25.50;50.70;;;;;;4937848;29;20791;-64
2023/05/29 13:34:34;;;;;;;2.20;2.00;;;25.60;50.80;;;;;;4937361;29;20541;-63
2023/05/29 13:37:01;;;;;;;1.60;1.50;;;25.60;50.90;;;;;;4935346;29;20197;-65
2023/05/29 13:39:28;;;;;;;1.73;1.63;;;25.50;50.70;;;;;;4936359;29;20582;-62
2023/05/29 13:41:54;;;;;;;1.70;1.60;;;25.50;51.60;;;;;;4936621;29;20424;-65
2023/05/29 13:44:20;;;;;;;1.70;1.60;;;25.50;51.20;;;;;;4936469;29;20976;-65
2023/05/29 13:46:45;;;;;;;1.87;1.77;;;25.60;50.30;;;;;;4937109;29;20181;-64
2023/05/29 13:49:11;;;;;;;2.00;1.63;;;25.50;50.40;;;;;;4937244;29;20388;-61
2023/05/29 13:51:36;;;;;;;1.93;1.83;;;25.50;50.50;;;;;;4933610;29;20509;-62
2023/05/29 13:54:03;;;;;;;2.60;2.10;;;25.50;50.70;;;;;;4937099;29;20181;-64
2023/05/29 13:56:29;;;;;;;1.90;1.80;;;25.50;51.10;;;;;;4937280;29;20178;-65
2023/05/29 13:58:55;;;;;;;1.90;1.80;;;25.40;51.60;;;;;;4937412;29;20422;-60
2023/05/29 14:01:20;;;;;;;1.93;1.83;;;25.40;51.40;;;;;;4937114;29;20216;-63
2023/05/29 14:03:46;;;;;;;1.70;1.60;;;25.40;51.40;;;;;;4936722;29;20227;-67
2023/05/29 14:06:12;;;;;;;1.97;1.67;;;25.40;52.00;;;;;;4935480;29;20449;-63
2023/05/29 14:08:38;;;;;;;1.60;1.50;;;25.50;50.80;;;;;;4929514;29;20194;-65
2023/05/29 14:11:04;;;;;;;1.53;1.43;;;25.50;50.40;;;;;;4918047;29;20400;-64
2023/05/29 14:13:29;;;;;;;1.70;1.60;;;25.50;50.80;;;;;;4917867;29;20533;-69
2023/05/29 14:15:56;;;;;;;2.17;1.90;;;25.60;51.90;;;;;;4917940;29;20404;-68
2023/05/29 14:18:22;;;;;;;1.40;1.30;;;25.60;51.10;;;;;;4917982;29;20189;-67
2023/05/29 14:20:48;;;;;;;2.10;2.00;;;25.60;51.10;;;;;;4919705;29;20518;-64
2023/05/29 14:23:16;;;;;;;1.53;1.43;;;25.60;50.40;;;;;;4936599;29;20508;-64
2023/05/29 14:25:42;;;;;;;1.60;1.50;;;25.60;50.90;;;;;;4936786;29;20513;-66
2023/05/29 14:28:08;;;;;;;1.80;1.40;;;25.40;50.90;;;;;;4936764;29;20421;-65
2023/05/29 14:30:33;;;;;;;2.53;1.90;;;25.50;50.90;;;;;;4936920;29;20414;-63
2023/05/29 14:32:59;;;;;;;2.43;1.40;;;25.50;50.70;;;;;;4936683;29;20388;-64
2023/05/29 14:35:25;;;;;;;1.43;1.40;;;25.60;51.10;;;;;;4935034;29;20284;-66
2023/05/29 14:37:51;;;;;;;1.90;1.80;;;25.60;51.30;;;;;;4917784;29;20426;-64
2023/05/29 14:40:17;;;;;;;1.80;1.70;;;25.60;51.90;;;;;;4917504;29;20415;-67
2023/05/29 14:42:43;;;;;;;1.77;1.67;;;25.60;51.20;;;;;;4917589;29;20273;-64
2023/05/29 14:45:09;;;;;;;1.73;1.63;;;25.50;51.50;;;;;;4916982;29;20466;-64
2023/05/29 14:47:35;;;;;;;2.70;1.87;;;25.60;51.70;;;;;;4917390;29;20257;-65
2023/05/29 14:50:01;;;;;;;1.73;1.63;;;25.50;51.70;;;;;;4917692;29;20451;-64
2023/05/29 14:52:26;;;;;;;1.97;1.83;;;25.50;52.50;;;;;;4917590;29;20450;-62
2023/05/29 14:54:52;;;;;;;1.50;1.40;;;25.60;53.00;;;;;;4917153;29;20195;-65
2023/05/29 14:57:17;;;;;;;1.50;1.40;;;25.50;53.60;;;;;;4917534;29;20220;-65
2023/05/29 14:59:43;;;;;;;1.83;1.70;;;25.50;54.20;;;;;;4917423;29;20170;-68
2023/05/29 15:02:09;;;;;;;1.90;1.53;;;25.50;52.90;;;;;;4917344;29;20182;-68
2023/05/29 15:04:35;;;;;;;1.97;1.60;;;25.40;52.30;;;;;;4928073;29;20235;-67
2023/05/29 15:07:01;;;;;;;1.67;1.53;;;25.40;53.00;;;;;;4935609;29;20837;-67
2023/05/29 15:09:26;;;;;;;2.40;1.90;;;25.50;53.60;;;;;;4928737;29;20434;-67
2023/05/29 15:11:52;;;;;;;1.67;1.57;;;25.50;53.90;;;;;;4917201;29;20182;-66
2023/05/29 15:14:18;;;;;;;2.20;1.90;;;25.50;54.70;;;;;;4916628;29;20264;-67
2023/05/29 15:16:44;;;;;;;1.70;1.60;;;25.60;54.80;;;;;;4917311;29;20174;-67
2023/05/29 15:19:10;;;;;;;1.37;1.27;;;25.50;54.60;;;;;;4917490;29;20334;-67
2023/05/29 15:21:36;;;;;;;1.80;1.70;;;25.50;54.60;;;;;;4917094;29;20406;-67
2023/05/29 15:24:02;;;;;;;2.03;1.60;;;25.40;54.70;;;;;;4916472;29;20588;-67
2023/05/29 15:26:28;;;;;;;1.47;1.47;;;25.40;53.90;;;;;;4917513;29;20835;-66
2023/05/29 15:28:54;;;;;;;2.30;2.00;;;25.40;53.40;;;;;;4920382;29;20781;-67
2023/05/29 15:31:22;;;;;;;1.73;1.63;;;25.40;53.10;;;;;;4920832;29;20198;-65
2023/05/29 15:33:48;;;;;;;1.50;1.40;;;25.30;53.30;;;;;;4923537;29;20425;-69
2023/05/29 15:36:15;;;;;;;2.40;1.70;;;25.30;53.60;;;;;;4939811;29;20912;-70
2023/05/29 15:38:42;;;;;;;1.40;1.30;;;25.30;53.90;;;;;;4939807;29;20882;-65
2023/05/29 15:41:07;;;;;;;1.60;1.50;;;25.20;54.30;;;;;;4939930;29;20418;-67
2023/05/29 15:43:33;;;;;;;2.00;1.90;;;25.10;54.00;;;;;;4939141;29;20504;-69
2023/05/29 15:45:59;;;;;;;2.67;2.37;;;25.10;54.20;;;;;;4939749;29;20186;-67
2023/05/29 15:48:25;;;;;;;2.43;2.23;;;25.10;53.50;;;;;;4936966;29;20221;-68
2023/05/29 15:50:50;;;;;;;1.50;1.40;;;25.10;53.40;;;;;;4920570;29;20406;-69
2023/05/29 15:53:16;;;;;;;1.27;1.23;;;25.10;54.10;;;;;;4920237;29;20175;-68
2023/05/29 15:55:42;;;;;;;3.73;1.87;;;25.10;54.30;;;;;;4920305;29;20696;-70
2023/05/29 15:58:08;;;;;;;1.40;1.30;;;25.10;53.90;;;;;;4920387;29;20171;-66
2023/05/29 16:00:36;;;;;;;1.40;1.30;;;25.10;54.10;;;;;;4920680;29;20490;-70
2023/05/29 16:03:03;;;;;;;2.23;2.13;;;25.10;54.60;;;;;;4921211;29;20170;-66
2023/05/29 16:05:28;;;;;;;1.50;1.40;;;25.10;53.90;;;;;;4937647;29;20497;-66
2023/05/29 16:07:55;;;;;;;1.10;1.10;;;25.10;54.30;;;;;;4939651;29;20433;-68
2023/05/29 16:10:20;;;;;;;2.20;2.10;;;25.10;54.40;;;;;;4939111;29;20182;-63
2023/05/29 16:12:50;;;;;;;1.60;1.50;;;25.10;53.70;;;;;;4936856;29;20414;-62
2023/05/29 16:15:17;;;;;;;2.17;1.97;;;25.10;53.70;;;;;;4918001;29;20206;-67
2023/05/29 16:17:43;;;;;;;1.70;1.60;;;25.10;54.20;;;;;;4919802;29;20393;-64
2023/05/29 16:20:09;;;;;;;1.43;1.30;;;25.00;53.70;;;;;;4919979;29;20960;-65
2023/05/29 16:22:35;;;;;;;1.90;1.80;;;25.00;53.80;;;;;;4920004;29;20174;-62
2023/05/29 16:25:02;;;;;;;1.33;1.23;;;25.00;54.60;;;;;;4919431;29;20497;-68
2023/05/29 16:27:28;;;;;;;1.63;1.53;;;25.00;54.20;;;;;;4919981;29;20505;-64
2023/05/29 16:29:53;;;;;;;1.50;1.40;;;25.00;53.60;;;;;;4919666;29;20493;-67
2023/05/29 16:32:19;;;;;;;1.90;1.80;;;25.00;53.30;;;;;;4919497;29;20616;-65
2023/05/29 16:34:45;;;;;;;1.60;1.50;;;25.00;53.40;;;;;;4919281;29;20208;-68
2023/05/29 16:37:10;;;;;;;1.37;1.27;;;24.90;53.60;;;;;;4919625;29;20418;-63
2023/05/29 16:39:40;;;;;;;1.90;1.80;;;24.80;53.90;;;;;;4919318;29;20186;-65
2023/05/29 16:42:06;;;;;;;2.27;2.07;;;24.80;54.30;;;;;;4919800;29;20218;-66
2023/05/29 16:44:32;;;;;;;2.27;1.50;;;24.80;54.60;;;;;;4919062;29;20437;-62
2023/05/29 16:46:58;;;;;;;1.13;1.13;;;24.80;54.50;;;;;;4919389;29;20494;-67
2023/05/29 16:49:25;;;;;;;1.97;1.83;;;24.80;54.70;;;;;;4919468;29;20458;-64
2023/05/29 16:51:51;;;;;;;1.33;1.23;;;24.70;54.50;;;;;;4919292;29;20527;-64